Latest Weather Observations for Coonabarabran Airport

IDN60801

Issued at 8:05 pm EDT Saturday 22 November 2014 (issued every 30 minutes, with the page automatically refreshed every 10 minutes)

About weather observations | Map of weather stations | Latest weather observations for NSW | Other Formats
Station Details ID: 064017 Name: COONABARABRAN AIRPORT AWS Lat: -31.33 Lon: 149.27 Height: 645.0 m
Data from the previous 72 hours. | See also: Recent months for locations in New South Wales
Date/Time
EDT
Temp
°C
App
Temp
°C
Dew
Point
Rel
Hum
%
Delta-T
°C
Wind Press
QNH
hPa
Press
MSL
hPa
Rain
since 9 am
mm
Dir
 
Spd
km/h
Gust
km/h
Spd
kts
Gust
kts
22/08:00pm 31.4 27.4 2.6 16 15.0 SW 13 17 7 9 1013.9 1011.0 0.0
22/07:30pm 32.3 29.0 2.4 15 15.6 SW 9 13 5 7 1013.5 1010.6 0.0
22/07:00pm 34.3 29.8 1.9 13 16.9 SSW 15 20 8 11 1013.1 1010.1 0.0
22/06:30pm 35.4 31.0 2.8 13 17.4 WSW 15 22 8 12 1012.8 1009.8 0.0
22/06:00pm 36.0 31.1 2.1 12 17.9 W 17 22 9 12 1012.7 1009.7 0.0
22/05:30pm 36.5 31.1 2.5 12 18.1 WNW 20 26 11 14 1012.4 1009.5 0.0
22/05:00pm 36.9 31.9 1.6 11 18.6 WSW 17 28 9 15 1012.4 1009.5 0.0
22/04:30pm 37.0 33.4 2.9 12 18.3 WNW 11 20 6 11 1012.6 1009.6 0.0
22/04:00pm 37.1 32.2 1.8 11 18.7 NNW 17 35 9 19 1012.8 1009.8 0.0
22/03:30pm 36.9 31.8 2.8 12 18.3 NW 19 30 10 16 1013.0 1010.0 0.0
22/03:00pm 36.9 31.0 1.6 11 18.6 NW 22 32 12 17 1013.3 1010.3 0.0
22/02:30pm 36.9 31.2 0.3 10 18.9 WNW 20 26 11 14 1013.6 1010.7 0.0
22/02:00pm 35.8 30.7 0.8 11 18.1 NNW 17 26 9 14 1013.7 1010.8 0.0
22/01:30pm 36.1 32.0 2.2 12 18.0 WNW 13 22 7 12 1014.0 1011.1 0.0
22/01:00pm 34.7 31.5 3.3 14 16.8 NE 9 19 5 10 1014.5 1011.5 0.0
22/12:30pm 34.6 31.6 4.2 15 16.5 SSE 9 19 5 10 1014.8 1011.9 0.0
22/12:00pm 33.5 30.3 5.1 17 15.5 NNW 11 20 6 11 1015.1 1012.2 0.0
22/11:30am 33.1 30.0 5.6 18 15.1 NW 11 19 6 10 1015.2 1012.3 0.0
22/11:00am 32.6 28.5 6.0 19 14.7 NNW 17 24 9 13 1015.6 1012.7 0.0
22/10:30am 32.3 29.2 7.2 21 14.1 W 13 17 7 9 1015.7 1012.8 0.0
22/10:00am 31.0 28.9 8.1 24 13.0 N 9 13 5 7 1016.1 1013.1 0.0
22/09:30am 30.3 27.4 8.1 25 12.5 N 13 19 7 10 1016.2 1013.3 0.0
22/09:00am 29.8 27.4 8.8 27 12.0 NNE 11 20 6 11 1016.2 1013.3 0.0
22/08:30am 28.5 25.7 8.7 29 11.2 NNE 13 19 7 10 1016.0 1013.0 0.0
22/08:00am 27.5 25.0 8.4 30 10.7 NNE 11 17 6 9 1015.7 1012.8 0.0
22/07:30am 27.2 25.6 8.1 30 10.6 NE 6 13 3 7 1015.2 1012.3 0.0
22/07:00am 25.1 23.7 9.0 36 9.0 WSW 6 11 3 6 1014.7 1011.7 0.0
22/06:30am 23.6 21.9 8.5 38 8.3 SW 7 13 4 7 1014.5 1011.5 0.0
22/06:00am 23.4 21.4 8.7 39 8.1 SSW 9 9 5 5 1014.2 1011.2 0.0
22/05:30am 22.7 20.6 8.4 40 7.8 SSW 9 13 5 7 1013.9 1011.0 0.0
22/05:00am 22.8 21.0 8.1 39 8.0 SSW 7 15 4 8 1013.6 1010.7 0.0
22/04:30am 23.3 21.3 8.6 39 8.1 SW 9 11 5 6 1013.5 1010.6 0.0
22/04:00am 22.7 21.0 8.4 40 7.8 SSW 7 11 4 6 1013.4 1010.5 0.0
22/03:30am 22.3 20.2 8.1 40 7.7 SSW 9 11 5 6 1013.4 1010.5 0.0
22/03:00am 22.9 20.8 8.2 39 8.0 SSW 9 9 5 5 1013.6 1010.7 0.0
22/02:30am 22.9 20.8 8.2 39 8.0 S 9 11 5 6 1013.7 1010.8 0.0
22/02:00am 22.7 20.2 8.0 39 8.0 S 11 15 6 8 1013.8 1010.9 0.0
22/01:30am 23.6 21.7 7.7 36 8.6 SSW 7 15 4 8 1014.2 1011.2 0.0
22/01:00am 23.8 20.8 7.8 36 8.7 S 13 17 7 9 1014.0 1011.1 0.0
22/12:30am 24.0 21.1 6.7 33 9.2 S 11 15 6 8 1014.3 1011.3 0.0
22/12:00am 25.0 21.5 7.2 32 9.6 S 15 20 8 11 1014.4 1011.4 0.0
 
Date/Time
EDT
Temp
°C
App
Temp
°C
Dew
Point
Rel
Hum
%
Delta-T
°C
Wind Press
QNH
hPa
Press
MSL
hPa
Rain
since 9 am
mm
Dir
 
Spd
km/h
Gust
km/h
Spd
kts
Gust
kts
21/11:30pm 24.9 22.0 6.6 31 9.8 S 11 13 6 7 1014.4 1011.4 0.0
21/11:00pm 25.8 22.9 6.4 29 10.4 S 11 19 6 10 1014.3 1011.3 0.0
21/10:30pm 26.3 23.0 6.3 28 10.7 SSW 13 17 7 9 1014.3 1011.3 0.0
21/10:00pm 26.8 23.8 6.2 27 11.1 SSW 11 17 6 9 1014.0 1011.1 0.0
21/09:30pm 27.4 23.3 6.2 26 11.4 SSW 17 22 9 12 1013.8 1010.9 0.0
21/09:00pm 27.9 23.8 6.1 25 11.8 SSW 17 20 9 11 1013.6 1010.7 0.0
21/08:30pm 28.4 24.2 5.9 24 12.1 SSW 17 26 9 14 1013.2 1010.2 0.0
21/08:00pm 28.9 24.7 5.7 23 12.5 SSW 17 24 9 13 1012.7 1009.7 0.0
21/07:30pm 30.3 25.7 5.6 21 13.4 SW 19 28 10 15 1012.2 1009.3 0.0
21/07:00pm 31.6 26.7 5.2 19 14.3 SW 20 28 11 15 1011.7 1008.7 0.0
21/06:30pm 32.5 26.3 4.3 17 15.1 SW 26 39 14 21 1011.2 1008.2 0.0
21/06:00pm 33.2 27.2 3.1 15 15.9 WSW 24 39 13 21 1010.6 1007.7 0.0
21/05:30pm 34.5 28.5 3.1 14 16.7 WNW 24 35 13 19 1010.4 1007.4 0.0
21/05:00pm 34.8 27.9 2.3 13 17.1 W 28 39 15 21 1010.4 1007.4 0.0
21/04:33pm 34.6 27.1 1.1 12 17.3 W 30 48 16 26 1010.4 1007.4 0.0
21/04:30pm 34.9 27.4 1.3 12 17.4 W 30 43 16 23 1010.2 1007.2 0.0
21/04:00pm 35.2 27.4 -1.0 10 18.2 WSW 30 43 16 23 1010.4 1007.4 0.0
21/03:30pm 35.0 26.8 -1.1 10 18.0 W 32 54 17 29 1010.4 1007.4 0.0
21/03:09pm 35.4 28.0 -0.8 10 18.2 W 28 46 15 25 1010.6 1007.7 0.0
21/03:00pm 35.9 27.4 -1.9 9 18.8 W 33 48 18 26 1010.7 1007.8 0.0
21/02:30pm 35.5 28.5 1.8 12 17.7 W 28 50 15 27 1011.1 1008.1 0.0
21/02:04pm 34.1 26.5 0.7 12 17.1 NNW 30 50 16 27 1010.9 1007.9 0.0
21/02:00pm 35.3 27.5 1.6 12 17.6 NW 32 46 17 25 1011.2 1008.2 0.0
21/01:30pm 34.5 29.2 8.3 20 15.1 NNW 26 41 14 22 1011.5 1008.5 0.0
21/01:00pm 32.6 28.7 13.3 31 11.9 NNW 26 43 14 23 1011.8 1008.8 0.0
21/12:30pm 32.6 28.6 14.2 32 11.5 NNW 28 43 15 23 1012.3 1009.4 0.0
21/12:00pm 31.9 28.3 14.1 34 11.1 N 26 43 14 23 1012.8 1009.8 0.0
21/11:30am 30.6 26.4 15.8 40 9.4 NNW 32 48 17 26 1013.1 1010.1 0.0
21/11:00am 30.6 26.6 16.6 43 9.0 NNW 33 48 18 26 1013.1 1010.1 0.0
21/10:30am 29.5 25.5 16.7 46 8.2 NNW 33 52 18 28 1013.1 1010.1 0.0
21/10:29am 29.9 26.0 17.0 45 8.3 NNW 33 52 18 28 1013.1 1010.1 0.0
21/10:00am 28.7 24.3 16.6 48 7.7 NNW 35 50 19 27 1012.9 1009.9 0.0
21/09:30am 27.9 24.3 17.1 51 6.9 N 32 44 17 24 1013.1 1010.1 0.0
21/09:27am 28.0 24.3 17.5 52 6.8 N 33 52 18 28 1013.2 1010.2 0.0
21/09:00am 26.8 23.2 17.3 56 6.1 N 32 46 17 25 1013.1 1010.1 0.0
21/08:30am 25.9 21.6 17.0 58 5.7 N 35 52 19 28 1013.1 1010.1 0.0
21/08:26am 25.4 21.6 17.1 60 5.3 N 33 52 18 28 1013.1 1010.1 0.0
21/08:00am 25.3 22.1 17.2 61 5.2 N 30 46 16 25 1012.9 1009.9 0.0
21/07:52am 25.2 21.6 17.1 60 5.2 N 32 50 17 27 1012.8 1009.8 0.0
21/07:30am 24.5 21.1 16.7 61 4.9 N 30 43 16 23 1012.7 1009.7 0.0
21/07:00am 23.9 20.7 16.2 62 4.8 N 28 39 15 21 1012.6 1009.6 0.0
21/06:30am 23.7 20.4 16.0 62 4.8 N 28 39 15 21 1012.2 1009.3 0.0
21/06:00am 23.8 20.7 15.6 60 5.1 N 26 39 14 21 1012.0 1009.1 0.0
21/05:30am 23.7 21.1 14.9 57 5.4 N 22 35 12 19 1011.7 1008.7 0.0
21/05:00am 23.3 20.1 13.2 53 6.0 N 22 30 12 16 1011.5 1008.5 0.0
21/04:30am 23.1 20.3 11.5 48 6.7 N 17 20 9 11 1011.5 1008.5 0.0
21/04:00am 24.2 20.7 10.1 41 8.0 N 19 28 10 15 1011.4 1008.4 0.0
21/03:30am 24.7 20.6 8.6 36 8.9 N 20 26 11 14 1011.6 1008.6 0.0
21/03:00am 25.7 20.7 6.3 29 10.4 N 22 32 12 17 1011.6 1008.6 0.0
21/02:30am 25.1 21.6 3.7 25 10.9 N 11 13 6 7 1011.5 1008.5 0.0
21/02:00am 24.9 21.9 4.1 26 10.7 N 9 11 5 6 1011.6 1008.6 0.0
21/01:30am 25.0 21.5 3.6 25 10.9 N 11 13 6 7 1011.9 1008.9 0.0
21/01:00am 25.8 22.8 4.3 25 11.1 NNW 9 11 5 6 1012.2 1009.3 0.0
21/12:30am 25.9 23.3 4.4 25 11.1 N 7 13 4 7 1012.4 1009.5 0.0
21/12:00am 26.4 23.7 3.6 23 11.7 NNW 7 15 4 8 1012.7 1009.7 0.0
 
Date/Time
EDT
Temp
°C
App
Temp
°C
Dew
Point
Rel
Hum
%
Delta-T
°C
Wind Press
QNH
hPa
Press
MSL
hPa
Rain
since 9 am
mm
Dir
 
Spd
km/h
Gust
km/h
Spd
kts
Gust
kts
20/11:30pm 26.1 23.3 3.4 23 11.6 WNW 7 13 4 7 1012.9 1009.9 0.0
20/11:00pm 26.6 23.9 3.8 23 11.7 NW 7 13 4 7 1013.0 1010.0 0.0
20/10:30pm 26.8 24.3 4.6 24 11.6 NNW 7 13 4 7 1013.0 1010.0 0.0
20/10:00pm 26.8 23.9 4.6 24 11.6 NNW 9 11 5 6 1013.0 1010.0 0.0
20/09:30pm 26.9 23.6 4.6 24 11.7 NW 11 13 6 7 1012.9 1009.9 0.0
20/09:00pm 26.9 24.0 4.6 24 11.7 NW 9 9 5 5 1012.7 1009.7 0.0
20/08:30pm 27.2 23.9 4.3 23 11.9 NW 11 13 6 7 1012.4 1009.5 0.0
20/08:00pm 27.7 24.9 5.3 24 11.9 NW 9 11 5 6 1012.2 1009.3 0.0
20/07:30pm 29.1 26.5 5.9 23 12.6 NNW 9 15 5 8 1012.0 1009.1 0.0
20/07:00pm 30.4 26.9 5.6 21 13.5 NNW 13 17 7 9 1011.8 1008.8 0.0
20/06:30pm 31.5 27.2 5.1 19 14.3 NW 17 30 9 16 1011.6 1008.6 0.0
20/06:00pm 30.8 26.1 5.3 20 13.8 NW 19 26 10 14 1011.4 1008.4 0.0
20/05:30pm 32.4 27.6 5.8 19 14.6 NW 20 30 11 16 1011.5 1008.5 0.0
20/05:00pm 32.8 27.4 6.2 19 14.8 NW 24 32 13 17 1011.6 1008.6 0.0
20/04:30pm 31.0 26.5 6.1 21 13.7 N 19 26 10 14 1011.7 1008.7 0.0
20/04:00pm 31.6 27.0 6.6 21 13.9 N 20 28 11 15 1012.1 1009.2 0.0
20/03:30pm 31.2 25.9 4.9 19 14.2 NW 22 32 12 17 1012.6 1009.6 0.0
20/03:00pm 32.2 26.3 5.7 19 14.5 NW 26 37 14 20 1012.9 1009.9 0.0
20/02:30pm 33.0 27.0 7.1 20 14.6 NNW 28 37 15 20 1013.3 1010.3 0.0
20/02:00pm 32.1 28.0 7.7 22 13.8 WNW 19 28 10 15 1013.6 1010.7 0.0
20/01:30pm 31.6 27.7 8.6 24 13.2 N 19 33 10 18 1014.3 1011.3 0.0
20/01:00pm 30.7 26.2 10.1 28 12.0 N 24 33 13 18 1014.9 1012.0 0.0
20/12:30pm 29.7 25.8 10.8 31 11.1 N 22 30 12 16 1015.3 1012.4 0.0
20/12:00pm 29.9 27.0 12.3 33 10.6 N 19 24 10 13 1016.1 1013.1 0.0
20/11:30am 29.4 26.7 13.6 38 9.7 N 20 32 11 17 1016.2 1013.3 0.0
20/11:00am 28.2 26.0 14.8 44 8.3 N 20 35 11 19 1016.6 1013.7 0.0
20/10:30am 27.5 25.1 15.5 48 7.5 N 22 33 12 18 1016.7 1013.8 0.0
20/10:00am 25.6 22.8 15.3 53 6.4 N 24 33 13 18 1016.9 1014.0 0.0
20/09:30am 24.9 21.5 15.8 57 5.7 N 28 35 15 19 1017.2 1014.3 0.0
20/09:00am 23.7 20.3 15.7 61 5.0 N 28 39 15 21 1017.6 1014.7 0.0
20/08:30am 22.7 19.2 15.5 64 4.4 N 28 39 15 21 1017.5 1014.5 0.0
20/08:00am 21.4 17.8 15.3 68 3.7 N 28 39 15 21 1017.6 1014.7 0.0
20/07:30am 20.2 17.1 14.6 70 3.4 N 24 33 13 18 1017.3 1014.4 0.0
20/07:00am 19.3 16.8 14.1 72 3.1 N 20 28 11 15 1017.6 1014.7 0.0
20/06:30am 18.7 16.2 14.2 75 2.7 N 20 26 11 14 1017.7 1014.8 0.0
20/06:00am 17.8 15.8 13.9 78 2.3 N 17 20 9 11 1017.6 1014.7 0.0
20/05:30am 17.3 14.7 13.2 77 2.4 N 19 20 10 11 1017.2 1014.3 0.0
20/05:00am 17.6 16.3 13.7 78 2.3 N 13 15 7 8 1017.1 1014.2 0.0
20/04:30am 16.8 16.1 13.1 79 2.1 N 9 11 5 6 1016.9 1014.0 0.0
20/04:00am 17.6 17.0 13.5 77 2.4 N 9 11 5 6 1016.7 1013.8 0.0
20/03:30am 17.9 16.5 13.4 75 2.6 NNE 13 17 7 9 1016.7 1013.8 0.0
20/03:00am 17.7 16.4 13.6 77 2.4 NE 13 17 7 9 1016.9 1014.0 0.0
20/02:30am 17.0 15.8 12.7 76 2.5 ENE 11 13 6 7 1016.7 1013.8 0.0
20/02:00am 18.4 17.4 13.3 72 3.0 E 11 15 6 8 1016.7 1013.8 0.0
20/01:30am 18.7 17.5 12.9 69 3.4 E 11 15 6 8 1017.1 1014.2 0.0
20/01:00am 19.0 17.5 12.0 64 4.0 ESE 11 15 6 8 1017.2 1014.3 0.0
20/12:30am 19.5 17.4 11.3 59 4.6 E 13 17 7 9 1017.2 1014.3 0.0
20/12:00am 20.5 17.9 10.6 53 5.6 ESE 15 20 8 11 1017.0 1014.1 0.0
 
Date/Time
EDT
Temp
°C
App
Temp
°C
Dew
Point
Rel
Hum
%
Delta-T
°C
Wind Press
QNH
hPa
Press
MSL
hPa
Rain
since 9 am
mm
Dir
 
Spd
km/h
Gust
km/h
Spd
kts
Gust
kts
19/11:30pm 21.0 18.3 8.9 46 6.6 E 13 20 7 11 1016.9 1014.0 0.0
19/11:00pm 21.3 19.3 8.6 44 6.9 ESE 9 13 5 7 1016.7 1013.8 0.0
19/10:30pm 21.4 19.2 8.0 42 7.2 SE 9 13 5 7 1016.2 1013.3 0.0
19/10:00pm 22.4 19.9 6.6 36 8.3 S 9 13 5 7 1016.2 1013.3 0.0
19/09:30pm 22.7 19.6 5.6 33 8.9 S 11 15 6 8 1016.0 1013.0 0.0
19/09:00pm 24.1 20.0 2.3 24 10.7 W 13 15 7 8 1015.6 1012.7 0.0
19/08:30pm 24.4 20.7 2.5 24 10.9 W 11 15 6 8 1015.4 1012.5 0.0

Other Formats:

Comma delimited format used in spreadsheet applications
http://www.bom.gov.au/fwo/IDN60801/IDN60801.95728.axf

JavaScript Object Notation format (JSON) in row-major order
http://www.bom.gov.au/fwo/IDN60801/IDN60801.95728.json